createdAt,value
2022-09-15T05:11:12.635Z,13.08
2022-09-15T05:14:00.360Z,13.13
2022-09-15T05:16:47.669Z,13.25
2022-09-15T05:19:35.297Z,13.34
2022-09-15T05:22:22.647Z,13.35
2022-09-15T05:25:10.484Z,13.43
2022-09-15T05:27:57.706Z,13.49
2022-09-15T05:30:44.949Z,13.56
2022-09-15T05:33:32.593Z,13.63
2022-09-15T05:36:23.712Z,13.67
2022-09-15T05:39:11.031Z,13.70
2022-09-15T05:41:58.352Z,13.79
2022-09-15T05:44:45.651Z,13.82
2022-09-15T05:47:32.888Z,13.84
2022-09-15T05:50:20.355Z,13.85
2022-09-15T05:53:08.194Z,13.93
2022-09-15T05:55:57.229Z,13.97
2022-09-15T05:58:46.725Z,13.92
2022-09-15T06:01:34.162Z,13.98
2022-09-15T06:04:21.501Z,13.98
2022-09-15T06:07:08.758Z,14.04
2022-09-15T06:09:56.170Z,14.04
2022-09-15T06:12:43.731Z,14.08
2022-09-15T06:15:31.656Z,14.12
2022-09-15T06:18:18.939Z,14.16
2022-09-15T06:21:12.865Z,14.22
2022-09-15T06:24:07.041Z,14.36
2022-09-15T06:26:54.860Z,14.36
2022-09-15T06:29:42.420Z,14.38
2022-09-15T06:32:30.138Z,14.43
2022-09-15T06:35:17.718Z,14.50
2022-09-15T06:38:04.944Z,14.55
2022-09-15T06:40:59.321Z,14.60
2022-09-15T06:43:49.098Z,14.67
2022-09-15T06:46:36.469Z,14.66
2022-09-15T06:49:24.130Z,14.55
2022-09-15T06:52:11.458Z,14.49
2022-09-15T06:54:58.727Z,14.53
2022-09-15T06:57:46.454Z,14.62
2022-09-15T07:00:34.045Z,14.78
2022-09-15T07:03:21.487Z,14.94
2022-09-15T07:06:10.096Z,15.07
2022-09-15T07:08:58.902Z,15.11
2022-09-15T07:11:46.201Z,15.12
2022-09-15T07:14:33.480Z,15.19
2022-09-15T07:17:20.759Z,15.24
2022-09-15T07:20:09.736Z,15.36
2022-09-15T07:23:57.849Z,15.37
2022-09-15T07:26:45.176Z,15.57
2022-09-15T07:29:37.137Z,15.74
2022-09-15T07:32:25.868Z,15.74
2022-09-15T07:35:13.208Z,15.82
2022-09-15T07:38:01.043Z,16.01
2022-09-15T07:40:49.155Z,16.07
2022-09-15T07:43:36.751Z,15.98
2022-09-15T07:46:25.312Z,16.00
2022-09-15T07:49:13.067Z,15.81
2022-09-15T07:52:00.853Z,15.61
2022-09-15T07:54:48.227Z,15.53
2022-09-15T07:57:35.950Z,15.44
2022-09-15T08:00:23.226Z,15.33
2022-09-15T08:03:12.604Z,15.30
2022-09-15T08:06:01.429Z,15.35
2022-09-15T08:08:53.978Z,15.47
2022-09-15T08:11:44.367Z,15.60
2022-09-15T08:14:32.909Z,15.66
2022-09-15T08:17:20.215Z,15.69
2022-09-15T08:20:07.790Z,15.66
2022-09-15T08:22:55.075Z,15.74
2022-09-15T08:25:42.381Z,15.77
2022-09-15T08:28:30.002Z,15.93
2022-09-15T08:31:18.204Z,16.11
2022-09-15T08:34:07.292Z,16.21
2022-09-15T08:36:54.569Z,16.51
2022-09-15T08:39:41.855Z,16.59
2022-09-15T08:42:30.863Z,16.76
2022-09-15T08:45:26.297Z,16.87
2022-09-15T08:48:17.459Z,17.07
2022-09-15T08:51:12.100Z,17.06
2022-09-15T08:54:10.895Z,17.12
2022-09-15T08:57:00.495Z,17.22
2022-09-15T08:59:47.751Z,17.40
2022-09-15T09:02:51.319Z,17.31
2022-09-15T09:05:43.289Z,17.44
2022-09-15T09:08:48.824Z,17.37
2022-09-15T09:12:10.799Z,17.32
2022-09-15T09:15:19.915Z,17.50
2022-09-15T09:18:41.924Z,17.67
2022-09-15T09:21:37.814Z,17.82
2022-09-15T09:24:31.209Z,17.74
2022-09-15T09:27:23.472Z,17.85
2022-09-15T09:30:14.549Z,17.68
2022-09-15T09:33:30.247Z,17.86
2022-09-15T09:36:17.743Z,17.97
2022-09-15T09:39:05.244Z,18.15
2022-09-15T09:41:54.100Z,18.20
2022-09-15T09:44:41.625Z,18.14
2022-09-15T09:47:29.760Z,17.83
2022-09-15T09:50:39.191Z,17.73
2022-09-15T09:53:33.742Z,17.94
2022-09-15T09:56:26.083Z,18.04
2022-09-15T09:59:33.951Z,18.28
2022-09-15T10:02:29.193Z,18.45
2022-09-15T10:05:20.296Z,18.40
2022-09-15T10:08:14.531Z,18.46
2022-09-15T10:11:07.867Z,18.29
2022-09-15T10:13:56.391Z,18.10
2022-09-15T10:16:44.144Z,18.31
2022-09-15T10:19:35.223Z,18.57
2022-09-15T10:22:33.124Z,18.73
2022-09-15T10:25:20.436Z,18.96
2022-09-15T10:28:18.119Z,19.00
2022-09-15T10:31:24.212Z,18.73
2022-09-15T10:34:31.220Z,18.24
2022-09-15T10:37:31.279Z,17.60
2022-09-15T10:40:51.911Z,16.81
2022-09-15T10:44:13.209Z,16.15
2022-09-15T10:47:26.763Z,15.71
2022-09-15T10:50:31.064Z,15.29
2022-09-15T10:53:57.366Z,14.88
2022-09-15T10:56:49.517Z,14.78
2022-09-15T10:59:43.333Z,14.66
2022-09-15T11:02:55.312Z,14.78
2022-09-15T11:05:57.794Z,14.76
2022-09-15T11:08:48.190Z,14.84
2022-09-15T11:12:20.411Z,14.96
2022-09-15T11:15:30.184Z,15.16
2022-09-15T11:19:03.884Z,15.58
2022-09-15T11:21:59.444Z,16.05
2022-09-15T11:24:59.212Z,16.71
2022-09-15T11:27:54.009Z,17.35
2022-09-15T11:30:58.307Z,17.62
2022-09-15T11:33:55.230Z,17.84
2022-09-15T11:37:05.148Z,17.68
2022-09-15T11:40:06.285Z,17.90
2022-09-15T11:43:00.573Z,18.63
2022-09-15T11:45:53.187Z,19.19
2022-09-15T11:48:42.729Z,19.66
2022-09-15T11:51:38.754Z,19.96
2022-09-15T11:54:37.372Z,19.78
2022-09-15T11:57:36.645Z,20.02
2022-09-15T12:00:24.058Z,19.86
2022-09-15T12:03:34.692Z,19.90
2022-09-15T12:06:30.463Z,19.91
2022-09-15T12:09:19.534Z,19.49
2022-09-15T12:12:13.491Z,19.47
2022-09-15T12:15:02.143Z,19.83
2022-09-15T12:18:37.319Z,19.99
2022-09-15T12:21:39.818Z,20.21
2022-09-15T12:24:45.984Z,20.83
2022-09-15T12:27:33.330Z,20.58
2022-09-15T12:30:41.118Z,19.63
2022-09-15T12:34:07.215Z,19.18
2022-09-15T12:37:06.434Z,18.84
2022-09-15T12:39:54.201Z,18.63
2022-09-15T12:42:45.888Z,19.21
2022-09-15T12:45:35.248Z,19.05
2022-09-15T12:48:32.511Z,18.85
2022-09-15T12:51:27.964Z,18.93
2022-09-15T12:54:24.159Z,20.36
2022-09-15T12:57:24.763Z,21.17
2022-09-15T13:00:20.908Z,22.05
2022-09-15T13:03:28.535Z,22.21
2022-09-15T13:06:26.119Z,22.22
2022-09-15T13:09:28.254Z,22.82
2022-09-15T13:12:19.295Z,22.19
2022-09-15T13:15:14.618Z,22.30
2022-09-15T13:18:05.583Z,22.31
2022-09-15T13:20:59.826Z,21.81
2022-09-15T13:23:51.791Z,21.45
2022-09-15T13:26:44.325Z,20.63
2022-09-15T13:29:33.125Z,20.45
2022-09-15T13:32:57.009Z,20.28
2022-09-15T13:36:15.258Z,20.27
2022-09-15T13:39:11.538Z,20.39
2022-09-15T13:42:08.347Z,20.93
2022-09-15T13:45:12.080Z,21.54
2022-09-15T13:48:17.217Z,22.59
2022-09-15T13:51:22.679Z,23.36
2022-09-15T13:54:18.931Z,24.17
2022-09-15T13:57:08.078Z,24.26
2022-09-15T13:59:55.557Z,23.85
2022-09-15T14:05:35.853Z,22.37
2022-09-15T14:08:29.499Z,22.56
2022-09-15T14:11:23.456Z,21.99
2022-09-15T14:14:34.745Z,20.90
2022-09-15T14:17:27.330Z,20.83
2022-09-15T14:20:31.235Z,20.34
2022-09-15T14:23:18.506Z,19.81
2022-09-15T14:26:12.711Z,19.34
2022-09-15T14:29:03.466Z,18.66
2022-09-15T14:31:51.990Z,17.07
2022-09-15T14:34:41.912Z,15.51
2022-09-15T14:37:32.159Z,14.92
2022-09-15T14:40:29.214Z,14.45
2022-09-15T14:43:35.645Z,14.21
2022-09-15T14:46:23.038Z,14.35
2022-09-15T14:49:16.610Z,14.57
2022-09-15T14:52:04.202Z,14.75
2022-09-15T14:54:56.271Z,15.03
2022-09-15T14:57:51.668Z,15.20
2022-09-15T15:01:00.305Z,15.52
2022-09-15T15:04:02.795Z,17.06
2022-09-15T15:06:55.981Z,18.29
2022-09-15T15:09:50.271Z,18.95
2022-09-15T15:12:42.035Z,19.03
2022-09-15T15:15:31.465Z,19.19
2022-09-15T15:18:36.142Z,19.14
2022-09-15T15:21:41.565Z,19.24
2022-09-15T15:24:29.469Z,19.05
2022-09-15T15:27:32.357Z,18.93
2022-09-15T15:30:30.674Z,18.43
2022-09-15T15:33:27.480Z,18.12
2022-09-15T15:36:15.085Z,17.85
2022-09-15T15:39:06.222Z,17.33
2022-09-15T15:42:02.665Z,17.16
2022-09-15T15:45:00.269Z,16.94
2022-09-15T15:47:47.606Z,16.64
2022-09-15T15:50:35.927Z,16.36
2022-09-15T15:53:24.425Z,16.18
2022-09-15T15:56:12.943Z,16.33
2022-09-15T15:59:00.541Z,16.38
2022-09-15T16:01:51.183Z,16.17
2022-09-15T16:04:38.552Z,16.00
2022-09-15T16:07:29.943Z,15.87
2022-09-15T16:10:23.063Z,15.81
2022-09-15T16:13:15.186Z,15.76
2022-09-15T16:16:03.505Z,15.74
2022-09-15T16:18:51.242Z,15.65
2022-09-15T16:21:42.225Z,15.53
2022-09-15T16:24:29.853Z,15.55
2022-09-15T16:27:18.332Z,15.53
2022-09-15T16:30:08.265Z,15.48
2022-09-15T16:32:56.219Z,15.35
2022-09-15T16:36:03.852Z,15.16
2022-09-15T16:38:51.190Z,15.05
2022-09-15T16:41:39.410Z,15.11
2022-09-15T16:44:27.598Z,15.04
2022-09-15T16:47:14.929Z,15.06
2022-09-15T16:50:03.722Z,15.11
2022-09-15T16:52:51.715Z,15.00
2022-09-15T16:55:43.186Z,14.90
2022-09-15T16:58:31.255Z,14.80
2022-09-15T17:01:20.814Z,14.79
2022-09-15T17:04:19.244Z,14.77
2022-09-15T17:07:06.511Z,14.67
2022-09-15T17:09:53.795Z,14.55
2022-09-15T17:12:41.784Z,14.59
2022-09-15T17:15:34.072Z,14.52
2022-09-15T17:18:22.437Z,14.47
2022-09-15T17:21:11.508Z,14.45
2022-09-15T17:23:58.953Z,14.42
2022-09-15T17:26:46.217Z,14.37
2022-09-15T17:29:33.460Z,14.36
2022-09-15T17:32:20.737Z,14.31
2022-09-15T17:35:25.734Z,14.24
2022-09-15T17:38:13.966Z,14.29
2022-09-15T17:41:01.414Z,14.36
2022-09-15T17:43:49.336Z,14.36
2022-09-15T17:46:36.771Z,14.40
2022-09-15T17:49:24.445Z,14.35
2022-09-15T17:52:11.748Z,14.29
2022-09-15T17:55:01.212Z,14.37
2022-09-15T17:57:49.954Z,14.32
2022-09-15T18:00:39.973Z,14.31
2022-09-15T18:03:30.212Z,14.30
2022-09-15T18:06:17.863Z,14.29
2022-09-15T18:09:05.185Z,14.28
2022-09-15T18:14:39.701Z,14.32
2022-09-15T18:17:27.064Z,14.26
2022-09-15T18:20:16.951Z,14.25
2022-09-15T18:23:04.604Z,14.32
2022-09-15T18:25:52.335Z,14.29
2022-09-15T18:28:40.204Z,14.19
2022-09-15T18:31:27.920Z,14.21
2022-09-15T18:34:15.190Z,14.24
2022-09-15T18:37:02.935Z,14.25
2022-09-15T18:39:50.563Z,14.20
2022-09-15T18:42:39.071Z,14.19
2022-09-15T18:45:26.618Z,14.20
2022-09-15T18:48:13.889Z,14.18
2022-09-15T18:51:01.368Z,14.17
2022-09-15T18:53:53.421Z,14.20
2022-09-15T18:56:41.732Z,14.20
2022-09-15T18:59:28.960Z,14.23
2022-09-15T19:02:16.445Z,14.24
2022-09-15T19:05:04.504Z,14.24
2022-09-15T19:07:52.100Z,14.25
2022-09-15T19:10:42.439Z,14.28
2022-09-15T19:13:30.199Z,14.28
2022-09-15T19:16:20.167Z,14.30
2022-09-15T19:19:10.221Z,14.25
2022-09-15T19:21:57.639Z,14.17
2022-09-15T19:24:44.964Z,14.13
2022-09-15T19:27:32.886Z,14.12
2022-09-15T19:30:20.464Z,14.06
2022-09-15T19:33:07.941Z,14.08
2022-09-15T19:36:10.587Z,14.07
2022-09-15T19:39:03.710Z,14.02
2022-09-15T19:41:51.536Z,13.97
2022-09-15T19:44:39.035Z,13.93
2022-09-15T19:47:26.472Z,13.90
2022-09-15T19:50:14.097Z,13.87
2022-09-15T19:53:01.401Z,13.86
2022-09-15T19:55:50.872Z,13.77
2022-09-15T19:58:38.440Z,13.74
2022-09-15T20:01:28.670Z,13.71
2022-09-15T20:04:16.370Z,13.77
2022-09-15T20:07:03.866Z,13.71
2022-09-15T20:09:53.278Z,13.67
2022-09-15T20:12:40.757Z,13.67
2022-09-15T20:15:29.422Z,13.70
2022-09-15T20:18:17.278Z,13.69
2022-09-15T20:21:10.398Z,13.69
2022-09-15T20:24:00.386Z,13.59
2022-09-15T20:26:48.501Z,13.64
2022-09-15T20:29:35.986Z,13.65
2022-09-15T20:32:28.145Z,13.63
2022-09-15T20:35:16.327Z,13.50
2022-09-15T20:38:03.690Z,13.40
2022-09-15T20:40:55.081Z,13.21
2022-09-15T20:43:43.557Z,13.15
2022-09-15T20:46:31.467Z,13.04
2022-09-15T20:49:19.059Z,12.97
2022-09-15T20:52:06.564Z,12.94
2022-09-15T20:54:54.067Z,12.89
2022-09-15T20:57:41.492Z,12.83
2022-09-15T21:00:33.205Z,12.80
2022-09-15T21:03:23.069Z,12.83
2022-09-15T21:06:22.177Z,12.82
2022-09-15T21:09:09.569Z,12.77
2022-09-15T21:11:57.123Z,12.72
2022-09-15T21:14:44.492Z,12.70
2022-09-15T21:17:31.863Z,12.65
2022-09-15T21:20:19.205Z,12.58
2022-09-15T21:23:07.393Z,12.54
2022-09-15T21:26:03.050Z,12.52
2022-09-15T21:28:51.144Z,12.49
2022-09-15T21:31:38.404Z,12.48
2022-09-15T21:34:26.446Z,12.41
2022-09-15T21:37:14.550Z,12.35
2022-09-15T21:40:03.182Z,12.31
2022-09-15T21:42:50.530Z,12.32
2022-09-15T21:45:37.896Z,12.28
2022-09-15T21:48:27.512Z,12.25
2022-09-15T21:51:24.262Z,12.18
2022-09-15T21:54:12.158Z,12.18
2022-09-15T21:56:59.672Z,12.16
2022-09-15T21:59:46.995Z,12.10
2022-09-15T22:02:34.341Z,12.05
2022-09-15T22:05:21.679Z,12.06
2022-09-15T22:08:10.574Z,12.12
2022-09-15T22:11:01.068Z,12.15
2022-09-15T22:13:48.603Z,12.15
2022-09-15T22:16:40.323Z,12.16
2022-09-15T22:19:27.774Z,12.14
2022-09-15T22:22:15.228Z,12.14
2022-09-15T22:25:02.848Z,12.17
2022-09-15T22:27:50.162Z,12.11
2022-09-15T22:30:37.479Z,12.08
2022-09-15T22:33:25.048Z,12.10
2022-09-15T22:36:14.319Z,12.08
2022-09-15T22:39:06.014Z,11.98
2022-09-15T22:41:53.467Z,11.98
2022-09-15T22:44:40.651Z,11.92
2022-09-15T22:47:28.013Z,11.90
2022-09-15T22:50:15.705Z,11.88
2022-09-15T22:53:03.319Z,11.85
2022-09-15T22:55:51.790Z,11.84
2022-09-15T22:58:42.559Z,11.81
2022-09-15T23:01:30.798Z,11.85
2022-09-15T23:04:18.119Z,11.90
2022-09-15T23:07:05.966Z,11.89
2022-09-15T23:09:53.358Z,11.94
2022-09-15T23:12:40.862Z,11.95
2022-09-15T23:15:28.779Z,12.01
2022-09-15T23:18:16.149Z,12.00
2022-09-15T23:21:09.447Z,12.01
2022-09-15T23:23:57.327Z,12.03
2022-09-15T23:26:44.648Z,12.00
2022-09-15T23:29:31.924Z,12.02
2022-09-15T23:32:19.218Z,12.07
2022-09-15T23:35:07.009Z,12.05
2022-09-15T23:37:54.334Z,12.05
2022-09-15T23:40:42.789Z,12.05
2022-09-15T23:43:30.101Z,12.01
2022-09-15T23:46:17.927Z,11.97
2022-09-15T23:49:05.777Z,11.97
2022-09-15T23:51:53.397Z,11.90
2022-09-15T23:54:40.634Z,11.88
2022-09-15T23:57:27.942Z,11.83
